Time;durP1;ratioP1;P1;durP2;ratioP2;P2;SDS_P1;SDS_P2;PMS_P1;PMS_P2;Temp;Humidity;BMP_temperature;BMP_pressure;BME280_temperature;BME280_humidity;BME280_pressure;Samples;Min_cycle;Max_cycle;Signal;HPM_P1;HPM_P2
2023/09/06 00:00:27;;;;;;;16.92;14.32;;;;;;;18.17;100.00;99755.22;5092955;28;20059;-88
2023/09/06 00:02:53;;;;;;;15.63;13.90;;;;;;;18.21;100.00;99755.28;5089466;28;20109;-88
2023/09/06 00:05:18;;;;;;;14.10;12.70;;;;;;;18.15;100.00;99737.78;5093307;28;20027;-88
2023/09/06 00:07:46;;;;;;;18.00;12.90;;;;;;;18.20;100.00;99745.16;5089553;28;20471;-88
2023/09/06 00:10:15;;;;;;;14.90;13.00;;;;;;;18.30;100.00;99752.19;5073964;28;20020;-88
2023/09/06 00:12:41;;;;;;;14.90;13.15;;;;;;;18.35;100.00;99763.19;5073968;28;20032;-88
2023/09/06 00:15:08;;;;;;;16.02;13.90;;;;;;;18.39;100.00;99755.53;5073984;28;20416;-88
2023/09/06 00:17:37;;;;;;;15.90;12.60;;;;;;;18.44;100.00;99745.91;5074003;28;20020;-88
2023/09/06 00:20:19;;;;;;;14.10;12.68;;;;;;;18.50;100.00;99747.22;5086583;28;20559;-88
2023/09/06 00:22:55;;;;;;;14.00;12.02;;;;;;;18.53;100.00;99763.44;5088968;28;20038;-88
2023/09/06 00:25:21;;;;;;;13.43;12.15;;;;;;;18.52;100.00;99759.81;5085829;28;20513;-89
2023/09/06 00:27:47;;;;;;;15.48;11.90;;;;;;;18.62;100.00;99751.81;5094148;28;20019;-89
2023/09/06 00:30:12;;;;;;;14.20;12.20;;;;;;;18.54;100.00;99750.91;5080496;28;20032;-88
2023/09/06 00:32:38;;;;;;;16.65;13.95;;;;;;;18.55;100.00;99758.22;5081786;28;20447;-89
2023/09/06 00:35:04;;;;;;;16.23;13.27;;;;;;;18.46;100.00;99761.31;5106507;28;20084;-88
2023/09/06 00:37:40;;;;;;;14.10;12.60;;;;;;;18.67;100.00;99762.84;5089946;28;20036;-88
2023/09/06 00:40:24;;;;;;;14.07;12.38;;;;;;;18.70;100.00;99761.22;5075115;28;20035;-89
2023/09/06 00:42:52;;;;;;;14.23;12.88;;;;;;;18.59;100.00;99747.75;5073895;28;20055;-89
2023/09/06 00:45:21;;;;;;;14.00;11.70;;;;;;;18.62;100.00;99755.50;5073868;28;20081;-89
2023/09/06 00:47:49;;;;;;;14.23;11.30;;;;;;;18.42;100.00;99751.13;5073947;28;20540;-88
2023/09/06 00:50:16;;;;;;;15.25;11.57;;;;;;;18.38;100.00;99731.25;5075324;28;20712;-88
2023/09/06 00:52:42;;;;;;;14.48;12.27;;;;;;;18.38;100.00;99749.06;5081324;28;20035;-89
2023/09/06 00:55:09;;;;;;;19.52;12.63;;;;;;;18.44;100.00;99751.56;5077056;28;20456;-88
2023/09/06 00:57:35;;;;;;;16.73;12.77;;;;;;;18.49;100.00;99749.22;5088703;28;20472;-88
2023/09/06 01:00:05;;;;;;;16.20;11.95;;;;;;;18.21;100.00;99730.63;5093967;28;20026;-88
2023/09/06 01:02:31;;;;;;;15.45;11.88;;;;;;;18.34;100.00;99759.53;5092206;28;20066;-88
2023/09/06 01:04:57;;;;;;;13.40;11.95;;;;;;;18.27;100.00;99736.78;5094052;28;20028;-88
2023/09/06 01:07:27;;;;;;;15.38;13.77;;;;;;;18.54;100.00;99752.94;5087012;28;20020;-88
2023/09/06 01:09:53;;;;;;;15.73;12.60;;;;;;;18.55;100.00;99741.22;5091760;28;20028;-88
2023/09/06 01:12:19;;;;;;;19.17;13.27;;;;;;;18.52;100.00;99742.00;5073585;28;20093;-88
2023/09/06 01:14:44;;;;;;;14.57;13.07;;;;;;;18.33;100.00;99723.91;5074494;28;20028;-88
2023/09/06 01:17:14;;;;;;;16.65;13.43;;;;;;;18.07;100.00;99733.22;5076665;28;20408;-89
2023/09/06 01:19:45;;;;;;;14.63;13.13;;;;;;;18.03;100.00;99729.50;5087415;28;20040;-88
2023/09/06 01:22:26;;;;;;;15.10;13.27;;;;;;;18.17;100.00;99729.75;5078749;28;20415;-88
2023/09/06 01:24:52;;;;;;;17.73;13.77;;;;;;;18.31;100.00;99737.63;5091094;28;20023;-89
2023/09/06 01:27:18;;;;;;;15.00;13.48;;;;;;;18.40;100.00;99734.53;5088267;28;20028;-89
2023/09/06 01:29:44;;;;;;;15.13;13.40;;;;;;;18.55;100.00;99729.09;5108625;28;20043;-89
2023/09/06 01:32:09;;;;;;;15.70;12.05;;;;;;;18.56;100.00;99733.53;5097596;28;20530;-88
2023/09/06 01:34:35;;;;;;;14.65;12.80;;;;;;;18.57;100.00;99727.47;5077191;28;20024;-88
2023/09/06 01:37:00;;;;;;;15.10;12.35;;;;;;;18.68;100.00;99733.31;5078914;28;20531;-88
2023/09/06 01:39:26;;;;;;;19.73;14.40;;;;;;;18.75;100.00;99739.06;5097693;28;20027;-88
2023/09/06 01:41:52;;;;;;;13.88;11.73;;;;;;;18.65;100.00;99726.38;5097059;28;20024;-88
2023/09/06 01:44:17;;;;;;;14.77;10.88;;;;;;;18.60;100.00;99740.06;5097172;28;20034;-89
2023/09/06 01:46:43;;;;;;;12.63;10.98;;;;;;;18.38;100.00;99719.94;5096388;28;20034;-89
2023/09/06 01:49:08;;;;;;;16.27;11.60;;;;;;;18.58;100.00;99729.13;5097178;28;20051;-88
2023/09/06 01:51:35;;;;;;;19.92;11.93;;;;;;;18.40;100.00;99717.53;5097299;28;20108;-89
2023/09/06 01:54:04;;;;;;;13.60;10.40;;;;;;;18.45;100.00;99714.38;5100807;28;20403;-89
2023/09/06 01:56:30;;;;;;;12.23;10.52;;;;;;;18.57;100.00;99727.47;5089923;28;20031;-89
2023/09/06 01:58:55;;;;;;;18.65;11.15;;;;;;;18.70;100.00;99730.06;5097281;28;20019;-89
2023/09/06 02:01:21;;;;;;;13.82;10.35;;;;;;;18.82;100.00;99744.00;5085972;28;20020;-89
2023/09/06 02:03:46;;;;;;;15.45;10.05;;;;;;;18.79;100.00;99744.78;5081876;28;20035;-89
2023/09/06 02:06:12;;;;;;;15.23;10.60;;;;;;;18.79;100.00;99747.59;5076898;28;20024;-89
2023/09/06 02:08:39;;;;;;;11.90;10.18;;;;;;;18.72;100.00;99745.50;5077122;28;20081;-89
2023/09/06 02:11:06;;;;;;;13.80;11.63;;;;;;;18.72;100.00;99739.03;5081689;28;20034;-89
2023/09/06 02:13:32;;;;;;;12.50;11.18;;;;;;;18.72;100.00;99737.00;5095573;28;20463;-89
2023/09/06 02:15:59;;;;;;;13.18;11.10;;;;;;;18.76;100.00;99728.53;5095684;28;20027;-89
2023/09/06 02:18:26;;;;;;;15.43;10.80;;;;;;;18.61;100.00;99745.34;5115263;28;20061;-90
2023/09/06 02:20:55;;;;;;;11.25;10.10;;;;;;;18.50;100.00;99699.06;5094362;28;20020;-88
2023/09/06 02:23:21;;;;;;;16.08;10.63;;;;;;;18.79;100.00;99739.94;5091224;28;20463;-89
2023/09/06 02:25:47;;;;;;;16.08;10.93;;;;;;;18.86;100.00;99750.53;5077248;28;20028;-89
2023/09/06 02:28:14;;;;;;;11.73;10.63;;;;;;;18.83;100.00;99745.66;5092847;28;20085;-89
2023/09/06 02:30:41;;;;;;;12.23;10.60;;;;;;;18.87;100.00;99751.34;5114693;28;20129;-89
2023/09/06 02:33:12;;;;;;;12.07;9.88;;;;;;;18.92;100.00;99757.50;5096263;28;20023;-89
2023/09/06 02:35:40;;;;;;;11.38;10.23;;;;;;;18.97;100.00;99753.50;5095408;28;20052;-88
2023/09/06 02:38:10;;;;;;;22.67;11.60;;;;;;;18.92;100.00;99745.34;5090042;28;20035;-89
2023/09/06 02:40:35;;;;;;;12.20;10.80;;;;;;;19.00;100.00;99749.91;5096567;28;20247;-89
2023/09/06 02:43:02;;;;;;;12.77;11.55;;;;;;;18.95;100.00;99758.75;5076312;28;20085;-89
2023/09/06 02:45:36;;;;;;;11.07;9.93;;;;;;;18.87;100.00;99740.84;5093581;28;20032;-89
2023/09/06 02:48:07;;;;;;;11.80;10.55;;;;;;;18.86;100.00;99741.22;5091304;28;20491;-89
2023/09/06 02:50:36;;;;;;;13.45;11.38;;;;;;;18.92;100.00;99743.31;5096034;28;20065;-88
2023/09/06 02:53:03;;;;;;;13.98;10.93;;;;;;;18.81;100.00;99736.69;5095996;28;20023;-89
2023/09/06 02:55:33;;;;;;;14.80;11.00;;;;;;;18.90;100.00;99733.59;5093454;28;20115;-88
2023/09/06 02:57:59;;;;;;;21.95;12.45;;;;;;;18.87;100.00;99732.34;5085299;28;20023;-89
2023/09/06 03:00:25;;;;;;;14.07;11.25;;;;;;;18.70;100.00;99735.75;5094715;28;20469;-89
2023/09/06 03:02:55;;;;;;;13.82;10.73;;;;;;;18.62;100.00;99737.66;5086405;28;20047;-89
2023/09/06 03:05:20;;;;;;;12.40;10.90;;;;;;;18.43;100.00;99721.63;5076043;28;20015;-89
2023/09/06 03:07:49;;;;;;;13.90;11.20;;;;;;;18.49;100.00;99737.91;5075374;28;20507;-89
2023/09/06 03:10:16;;;;;;;21.08;12.10;;;;;;;18.48;100.00;99735.47;5081754;28;20123;-89
2023/09/06 03:12:43;;;;;;;13.05;10.18;;;;;;;18.60;100.00;99738.06;5081362;28;20020;-89
2023/09/06 03:15:10;;;;;;;11.52;10.13;;;;;;;18.77;100.00;99752.84;5095688;28;20015;-89
2023/09/06 03:17:36;;;;;;;13.32;10.30;;;;;;;18.69;100.00;99746.28;5079573;28;20036;-89
2023/09/06 03:20:18;;;;;;;22.73;11.05;;;;;;;18.85;100.00;99756.59;5089983;28;20138;-89
2023/09/06 03:22:46;;;;;;;15.05;11.68;;;;;;;18.59;100.00;99750.59;5081293;28;20020;-88
2023/09/06 03:25:14;;;;;;;14.68;11.43;;;;;;;18.33;100.00;99737.25;5079412;28;20119;-89
2023/09/06 03:27:41;;;;;;;13.73;11.05;;;;;;;18.47;100.00;99743.13;5080659;28;20049;-89
2023/09/06 03:30:08;;;;;;;21.08;12.48;;;;;;;18.54;100.00;99750.13;5075052;28;20016;-88
2023/09/06 03:32:33;;;;;;;14.60;11.65;;;;;;;18.70;100.00;99759.22;5087910;28;20019;-88
2023/09/06 03:34:59;;;;;;;13.68;11.20;;;;;;;18.72;100.00;99762.50;5083958;28;20521;-88
2023/09/06 03:37:24;;;;;;;20.38;12.35;;;;;;;18.50;100.00;99761.38;5092425;28;20470;-89
2023/09/06 03:39:53;;;;;;;17.05;11.77;;;;;;;18.42;100.00;99757.63;5075103;28;20023;-89
2023/09/06 03:42:19;;;;;;;29.65;11.70;;;;;;;18.28;100.00;99751.72;5075142;28;20020;-88
2023/09/06 03:44:46;;;;;;;20.20;12.00;;;;;;;18.08;100.00;99735.66;5086972;28;20386;-89
2023/09/06 03:47:15;;;;;;;13.10;11.73;;;;;;;18.22;100.00;99751.25;5074779;28;20488;-89
2023/09/06 03:49:43;;;;;;;15.25;11.95;;;;;;;18.17;100.00;99737.41;5075688;28;20035;-89
2023/09/06 03:52:10;;;;;;;13.65;12.27;;;;;;;18.17;100.00;99745.91;5090033;28;20026;-89
2023/09/06 03:54:37;;;;;;;26.48;13.30;;;;;;;18.20;100.00;99759.31;5088978;28;20051;-89
2023/09/06 03:57:07;;;;;;;17.45;13.48;;;;;;;18.14;100.00;99747.47;5084258;28;20024;-89
2023/09/06 03:59:35;;;;;;;15.40;13.68;;;;;;;18.09;100.00;99759.94;5094523;28;20027;-88
2023/09/06 04:02:02;;;;;;;14.13;12.65;;;;;;;18.06;100.00;99771.22;5094507;28;20019;-88
2023/09/06 04:04:28;;;;;;;16.58;14.40;;;;;;;18.09;100.00;99776.13;5089416;28;20032;-89
2023/09/06 04:06:54;;;;;;;21.58;15.05;;;;;;;18.26;100.00;99769.13;5077555;28;20028;-88
2023/09/06 04:12:43;;;;;;;23.02;14.50;;;;;;;18.14;100.00;99775.78;5375731;22;20055;-88
2023/09/06 04:15:13;;;;;;;17.95;14.10;;;;;;;18.34;100.00;99765.22;5061210;28;20032;-87
2023/09/06 04:17:40;;;;;;;18.67;15.40;;;;;;;18.36;100.00;99768.47;5054068;28;20063;-88
2023/09/06 04:20:19;;;;;;;21.52;14.38;;;;;;;18.42;100.00;99763.28;5054172;28;20461;-87
2023/09/06 04:22:47;;;;;;;26.90;15.00;;;;;;;18.50;100.00;99784.03;5061084;28;20024;-88
2023/09/06 04:25:18;;;;;;;17.35;14.63;;;;;;;18.58;100.00;99773.63;5073303;28;20020;-89
2023/09/06 04:27:45;;;;;;;14.63;12.95;;;;;;;18.70;100.00;99781.91;5087195;28;20483;-88
2023/09/06 04:30:13;;;;;;;20.92;13.70;;;;;;;18.70;100.00;99766.91;5061834;28;20111;-88
2023/09/06 04:32:38;;;;;;;14.70;13.25;;;;;;;18.70;100.00;99764.06;5089833;28;20019;-88
2023/09/06 04:35:04;;;;;;;20.63;12.32;;;;;;;18.67;100.00;99754.34;5073764;28;20064;-89
2023/09/06 04:37:32;;;;;;;14.20;11.90;;;;;;;18.70;100.00;99756.41;5073464;28;20119;-91
2023/09/06 04:39:57;;;;;;;14.25;11.00;;;;;;;18.78;100.00;99760.97;5074097;28;20059;-88
2023/09/06 04:42:22;;;;;;;16.10;11.30;;;;;;;18.82;100.00;99771.53;5072220;28;20020;-88
2023/09/06 04:44:48;;;;;;;18.23;11.13;;;;;;;18.78;100.00;99760.13;5071444;28;20032;-88
2023/09/06 04:47:17;;;;;;;13.85;10.57;;;;;;;18.62;100.00;99768.81;5080182;28;20385;-88
2023/09/06 04:49:45;;;;;;;16.67;12.27;;;;;;;18.41;100.00;99775.00;5076666;28;20115;-88
2023/09/06 04:52:11;;;;;;;16.05;11.60;;;;;;;18.41;100.00;99770.16;5078014;28;20089;-88
2023/09/06 04:54:36;;;;;;;13.90;12.13;;;;;;;18.54;100.00;99784.91;5075457;28;20508;-87
2023/09/06 04:57:02;;;;;;;15.90;12.30;;;;;;;18.75;100.00;99773.06;5095198;28;20115;-88
2023/09/06 04:59:28;;;;;;;16.05;11.20;;;;;;;18.79;100.00;99778.78;5077393;28;20024;-88
2023/09/06 05:01:56;;;;;;;26.05;10.95;;;;;;;18.85;100.00;99765.91;5077965;28;20016;-89
2023/09/06 05:04:25;;;;;;;16.80;11.55;;;;;;;18.91;100.00;99775.69;5072748;28;20024;-88
2023/09/06 05:06:50;;;;;;;13.20;11.32;;;;;;;19.04;100.00;99793.31;5070954;28;20132;-88
2023/09/06 05:09:17;;;;;;;16.20;11.68;;;;;;;18.81;100.00;99770.69;5077677;28;20090;-88
2023/09/06 05:11:43;;;;;;;16.20;12.30;;;;;;;19.11;100.00;99801.09;5084264;28;20585;-88
2023/09/06 05:14:10;;;;;;;15.88;10.77;;;;;;;19.09;100.00;99780.81;5073718;28;20052;-88
2023/09/06 05:16:35;;;;;;;22.40;11.20;;;;;;;19.22;100.00;99807.72;5056201;28;20115;-89
2023/09/06 05:19:01;;;;;;;17.58;11.82;;;;;;;19.26;100.00;99812.59;5074860;28;20108;-87
2023/09/06 05:21:26;;;;;;;13.82;10.77;;;;;;;19.29;100.00;99814.66;5057051;28;20033;-88
2023/09/06 05:23:52;;;;;;;12.63;10.57;;;;;;;19.31;100.00;99823.63;5057251;28;20036;-88
2023/09/06 05:26:17;;;;;;;13.07;10.90;;;;;;;19.42;100.00;99833.03;5057402;28;20472;-88
2023/09/06 05:28:43;;;;;;;16.58;11.85;;;;;;;19.34;100.00;99823.66;5070085;28;20036;-88
2023/09/06 05:31:09;;;;;;;14.38;11.43;;;;;;;19.15;100.00;99824.63;5058493;28;20039;-88
2023/09/06 05:33:34;;;;;;;16.42;11.02;;;;;;;19.01;100.00;99824.44;5057188;28;20081;-89
2023/09/06 05:36:00;;;;;;;12.25;10.70;;;;;;;18.62;100.00;99806.47;5039726;28;20446;-89
2023/09/06 05:38:29;;;;;;;16.05;11.45;;;;;;;18.58;100.00;99819.78;5056238;28;20040;-87
2023/09/06 05:40:54;;;;;;;16.30;11.80;;;;;;;18.60;100.00;99820.22;5053331;28;20028;-88
2023/09/06 05:43:20;;;;;;;18.58;12.38;;;;;;;18.79;100.00;99836.28;5055203;28;20027;-88
2023/09/06 05:45:45;;;;;;;16.58;11.40;;;;;;;18.75;100.00;99837.41;5056359;28;20024;-88
2023/09/06 05:48:10;;;;;;;16.67;12.73;;;;;;;18.83;100.00;99842.00;5056694;28;20082;-88
2023/09/06 05:50:36;;;;;;;17.38;13.10;;;;;;;18.72;100.00;99841.03;5074358;28;20033;-88
2023/09/06 05:53:01;;;;;;;20.00;14.25;;;;;;;18.55;100.00;99820.53;5055918;28;21212;-89
2023/09/06 05:55:28;;;;;;;16.55;12.90;;;;;;;18.44;100.00;99805.38;5054738;28;20044;-88
2023/09/06 05:57:53;;;;;;;19.60;14.63;;;;;;;18.64;100.00;99843.72;5072963;28;20029;-88
2023/09/06 06:00:21;;;;;;;20.30;15.32;;;;;;;18.37;100.00;99826.72;5074286;28;20032;-88
2023/09/06 06:02:50;;;;;;;19.95;14.00;;;;;;;18.31;100.00;99827.44;5055338;28;20147;-88
2023/09/06 06:05:18;;;;;;;19.45;13.98;;;;;;;18.44;100.00;99845.03;5057442;28;20025;-88
2023/09/06 06:07:44;;;;;;;17.83;14.68;;;;;;;18.31;100.00;99850.09;5055937;28;20066;-88
2023/09/06 06:10:10;;;;;;;19.88;14.68;;;;;;;18.46;100.00;99859.59;5056851;28;20563;-88
2023/09/06 06:12:39;;;;;;;20.60;14.60;;;;;;;18.55;100.00;99882.84;5057093;28;20123;-88
2023/09/06 06:15:08;;;;;;;23.75;14.00;;;;;;;18.55;100.00;99879.19;5055618;28;20055;-88
2023/09/06 06:17:35;;;;;;;19.60;14.40;;;;;;;18.49;100.00;99859.66;5055754;28;20506;-88
2023/09/06 06:20:01;;;;;;;18.05;14.57;;;;;;;18.39;100.00;99857.47;5053386;28;20028;-87
2023/09/06 06:22:26;;;;;;;18.42;15.65;;;;;;;18.30;100.00;99880.41;5048577;28;20028;-88
2023/09/06 06:24:52;;;;;;;22.77;14.75;;;;;;;18.33;100.00;99882.47;5060276;28;20020;-87
2023/09/06 06:27:18;;;;;;;25.58;16.13;;;;;;;18.37;100.00;99889.03;5055917;28;20043;-87
2023/09/06 06:29:44;;;;;;;22.75;13.95;;;;;;;18.27;100.00;99891.66;5055552;28;20510;-88
2023/09/06 06:32:09;;;;;;;17.13;14.23;;;;;;;18.26;100.00;99892.84;5054329;28;20025;-88
2023/09/06 06:34:38;;;;;;;25.70;14.82;;;;;;;18.06;100.00;99865.41;5052674;28;20020;-88
2023/09/06 06:37:05;;;;;;;18.30;16.07;;;;;;;18.31;100.00;99879.19;5050250;28;20124;-88
2023/09/06 06:39:31;;;;;;;21.05;16.42;;;;;;;18.49;100.00;99882.34;5069039;28;20029;-88
2023/09/06 06:41:56;;;;;;;24.52;16.10;;;;;;;18.44;100.00;99871.34;5036151;28;20033;-88
2023/09/06 06:44:22;;;;;;;20.10;14.63;;;;;;;18.54;100.00;99895.34;5043796;28;20466;-85
2023/09/06 06:46:48;;;;;;;18.83;15.32;;;;;;;18.78;100.00;99904.63;5053809;28;20034;-86
2023/09/06 06:49:15;;;;;;;22.23;14.48;;;;;;;18.84;100.00;99886.13;5055208;28;20012;-86
2023/09/06 06:51:40;;;;;;;18.08;15.00;;;;;;;18.87;100.00;99881.69;5055349;28;20024;-85
2023/09/06 06:54:08;;;;;;;25.48;15.73;;;;;;;18.74;100.00;99893.25;5061248;28;20024;-88
2023/09/06 06:56:35;;;;;;;26.17;18.67;;;;;;;18.93;100.00;99897.97;5055575;28;20111;-87
2023/09/06 06:59:02;;;;;;;19.52;15.60;;;;;;;18.80;100.00;99891.72;5073695;28;20108;-87
2023/09/06 07:01:28;;;;;;;20.70;15.23;;;;;;;18.83;100.00;99881.66;5061072;28;20036;-87
2023/09/06 07:03:54;;;;;;;23.50;14.93;;;;;;;18.99;100.00;99912.66;5072522;28;20025;-88
2023/09/06 07:06:21;;;;;;;15.70;13.25;;;;;;;18.86;100.00;99917.72;5072156;28;20029;-88
2023/09/06 07:08:47;;;;;;;20.27;13.93;;;;;;;18.85;100.00;99907.59;5072463;28;20017;-87
2023/09/06 07:11:12;;;;;;;21.25;14.25;;;;;;;18.73;100.00;99893.66;5067331;28;20043;-88
2023/09/06 07:13:38;;;;;;;17.30;14.77;;;;;;;19.02;100.00;99905.44;5054039;28;20032;-87
2023/09/06 07:16:05;;;;;;;19.02;12.43;;;;;;;18.88;100.00;99877.66;5055408;28;20044;-88
2023/09/06 07:18:30;;;;;;;16.73;13.82;;;;;;;18.97;100.00;99903.72;5057172;28;20473;-87
2023/09/06 07:20:56;;;;;;;16.67;14.07;;;;;;;18.89;100.00;99880.13;5069689;28;20031;-88
2023/09/06 07:23:22;;;;;;;28.20;15.52;;;;;;;19.12;100.00;99907.63;5055266;28;20024;-88
2023/09/06 07:25:47;;;;;;;16.98;13.98;;;;;;;19.19;100.00;99904.88;5055189;28;20032;-88
2023/09/06 07:28:13;;;;;;;18.05;13.82;;;;;;;19.21;100.00;99908.16;5055892;28;20028;-88
2023/09/06 07:30:40;;;;;;;19.88;14.65;;;;;;;19.02;100.00;99894.94;5055462;28;20404;-88
2023/09/06 07:33:06;;;;;;;16.55;14.20;;;;;;;18.93;100.00;99895.16;5051637;28;20128;-88
2023/09/06 07:35:31;;;;;;;26.42;15.27;;;;;;;18.97;100.00;99892.38;5061735;28;20057;-88
2023/09/06 07:37:58;;;;;;;39.95;15.80;;;;;;;19.04;100.00;99897.34;5044979;28;20020;-88
2023/09/06 07:40:24;;;;;;;20.85;14.05;;;;;;;19.24;100.00;99908.59;5055004;28;20496;-87
2023/09/06 07:42:49;;;;;;;16.92;14.85;;;;;;;19.25;100.00;99907.38;5072282;28;20054;-87
2023/09/06 07:45:18;;;;;;;21.83;14.57;;;;;;;19.21;100.00;99895.97;5072552;28;20377;-87
2023/09/06 07:47:43;;;;;;;21.42;13.82;;;;;;;19.13;100.00;99883.72;5054149;28;20028;-87
2023/09/06 07:50:09;;;;;;;24.30;14.52;;;;;;;19.29;100.00;99908.25;5055314;28;20027;-88
2023/09/06 07:52:37;;;;;;;22.35;15.48;;;;;;;19.28;100.00;99906.59;5053836;28;20131;-87
2023/09/06 07:55:04;;;;;;;20.45;14.02;;;;;;;19.54;100.00;99919.09;5071571;28;20021;-88
2023/09/06 07:57:30;;;;;;;22.10;12.10;;;;;;;19.63;100.00;99922.47;5069485;28;20470;-88
2023/09/06 07:59:55;;;;;;;15.75;12.23;;;;;;;19.61;100.00;99913.53;5071117;28;20020;-88
2023/09/06 08:02:21;;;;;;;25.75;13.23;;;;;;;19.74;100.00;99916.94;5046292;28;20060;-88
2023/09/06 08:04:54;;;;;;;22.85;13.32;;;;;;;19.82;100.00;99903.63;5061300;28;20028;-88
2023/09/06 08:07:22;;;;;;;25.73;13.10;;;;;;;19.76;100.00;99881.25;5069264;28;20029;-87
2023/09/06 08:09:47;;;;;;;15.35;11.82;;;;;;;19.60;100.00;99881.47;5071161;28;20036;-88
2023/09/06 08:12:13;;;;;;;15.45;11.15;;;;;;;19.87;99.46;99903.28;5067845;28;20032;-88
2023/09/06 08:14:39;;;;;;;16.10;9.93;;;;;;;19.77;99.78;99899.94;5071228;28;20021;-88
2023/09/06 08:17:05;;;;;;;14.43;11.27;;;;;;;19.70;100.00;99899.03;5070743;28;20129;-88
2023/09/06 08:19:30;;;;;;;15.38;10.75;;;;;;;19.63;100.00;99894.91;5070030;28;20036;-88
2023/09/06 08:21:56;;;;;;;14.65;10.40;;;;;;;19.91;99.33;99907.00;5070253;28;20024;-89
2023/09/06 08:24:21;;;;;;;17.42;12.10;;;;;;;19.61;97.75;99888.81;5070460;28;20032;-88
2023/09/06 08:26:50;;;;;;;19.67;10.65;;;;;;;19.73;98.39;99913.25;5070731;28;20536;-89
2023/09/06 08:29:16;;;;;;;13.48;11.70;;;;;;;19.77;98.17;99916.94;5070710;28;20479;-88
2023/09/06 08:31:41;;;;;;;18.50;11.55;;;;;;;19.80;98.79;99904.00;5056107;28;20024;-88
2023/09/06 08:34:07;;;;;;;14.48;10.75;;;;;;;20.02;99.02;99913.59;5068122;28;20025;-88
2023/09/06 08:36:33;;;;;;;22.95;10.57;;;;;;;20.19;97.97;99919.88;5070134;28;20056;-89
2023/09/06 08:38:59;;;;;;;18.70;11.18;;;;;;;20.05;95.62;99910.00;5053834;28;20052;-91
2023/09/06 08:41:26;;;;;;;25.83;12.80;;;;;;;20.22;96.71;99902.06;5052779;28;20036;-87
2023/09/06 08:43:52;;;;;;;45.13;11.93;;;;;;;20.26;96.46;99917.09;5069275;28;20028;-87
2023/09/06 08:46:29;;;;;;;14.52;11.23;;;;;;;20.30;94.32;99915.13;5071320;28;20029;-90
2023/09/06 08:48:56;;;;;;;15.13;10.88;;;;;;;20.09;95.57;99887.34;5053925;28;20028;-90
2023/09/06 08:51:22;;;;;;;16.45;12.02;;;;;;;20.23;97.54;99880.97;5054240;28;20028;-89
2023/09/06 08:53:48;;;;;;;13.48;11.35;;;;;;;20.54;95.56;99910.06;5054006;28;20032;-90
2023/09/06 08:56:15;;;;;;;16.42;12.57;;;;;;;20.58;94.78;99896.69;5054179;28;20046;-90
2023/09/06 08:58:41;;;;;;;18.95;14.30;;;;;;;20.66;95.29;99908.94;5061709;28;20412;-89
2023/09/06 09:01:06;;;;;;;19.10;15.48;;;;;;;20.31;95.16;99899.72;5058307;28;20025;-89
2023/09/06 09:03:33;;;;;;;21.33;13.55;;;;;;;20.62;95.90;99913.78;5054407;28;20056;-89
2023/09/06 09:06:00;;;;;;;23.15;14.18;;;;;;;20.84;94.03;99917.63;5064891;28;20032;-90
2023/09/06 09:08:29;;;;;;;19.33;13.65;;;;;;;20.80;93.98;99891.19;5070952;28;20073;-92
2023/09/06 09:11:18;;;;;;;19.20;14.73;;;;;;;21.33;93.95;99920.38;5070557;28;20112;-91
2023/09/06 09:13:45;;;;;;;28.27;12.77;;;;;;;21.43;89.60;99904.59;5057017;28;20603;-89
2023/09/06 09:16:12;;;;;;;16.33;10.65;;;;;;;21.56;85.95;99905.88;5053370;28;20040;-89
2023/09/06 09:18:39;;;;;;;13.50;9.85;;;;;;;21.63;84.49;99902.22;5050928;28;20066;-90
2023/09/06 09:21:09;;;;;;;17.80;8.13;;;;;;;21.90;82.41;99915.34;5055708;28;20116;-89
2023/09/06 09:23:55;;;;;;;16.13;10.60;;;;;;;22.21;82.56;99919.50;5068287;28;20052;-89
2023/09/06 09:26:22;;;;;;;11.90;8.23;;;;;;;22.43;78.18;99923.19;5053387;28;20417;-89
2023/09/06 09:28:48;;;;;;;13.07;7.97;;;;;;;22.23;76.67;99917.06;5051208;28;20074;-89
2023/09/06 09:31:15;;;;;;;12.57;7.65;;;;;;;22.09;73.87;99915.00;5051327;28;20125;-88
2023/09/06 09:33:49;;;;;;;17.35;9.20;;;;;;;22.28;78.00;99907.31;5069342;28;20032;-89
2023/09/06 09:36:16;;;;;;;11.88;7.65;;;;;;;22.39;74.55;99902.44;5034427;28;20056;-89
2023/09/06 09:38:47;;;;;;;18.55;8.73;;;;;;;22.22;75.02;99892.66;5071513;28;20524;-90
2023/09/06 09:41:14;;;;;;;13.45;7.90;;;;;;;22.32;75.24;99881.66;5071965;28;20469;-89
2023/09/06 09:43:39;;;;;;;11.50;6.55;;;;;;;22.60;71.48;99917.13;5071609;28;20463;-89
2023/09/06 09:46:06;;;;;;;9.75;7.00;;;;;;;22.39;70.35;99887.38;5059741;28;20490;-90
2023/09/06 09:48:32;;;;;;;11.93;7.30;;;;;;;22.96;70.59;99917.09;5054943;28;20035;-90
2023/09/06 09:51:00;;;;;;;12.32;7.28;;;;;;;23.32;68.83;99894.22;5072709;28;20489;-91
2023/09/06 09:53:28;;;;;;;14.38;6.90;;;;;;;23.46;65.11;99906.81;5061590;28;20147;-87
2023/09/06 09:55:55;;;;;;;13.77;6.85;;;;;;;23.53;66.42;99899.03;5064797;28;20475;-90
2023/09/06 09:58:22;;;;;;;10.63;6.78;;;;;;;23.92;65.61;99900.09;5052346;28;20028;-90
2023/09/06 10:00:52;;;;;;;13.55;7.95;;;;;;;24.42;64.58;99903.88;5051629;28;20036;-89
2023/09/06 10:03:21;;;;;;;11.30;7.15;;;;;;;24.53;64.39;99907.44;5052702;28;20431;-90
2023/09/06 10:05:47;;;;;;;9.82;7.03;;;;;;;24.02;63.18;99909.00;5051953;28;20039;-89
2023/09/06 10:08:15;;;;;;;8.25;6.63;;;;;;;23.86;60.63;99903.78;5053634;28;20491;-90
2023/09/06 10:10:41;;;;;;;9.18;6.78;;;;;;;24.21;63.87;99877.06;5056993;28;20025;-90
2023/09/06 10:13:10;;;;;;;10.68;7.00;;;;;;;24.72;60.83;99893.78;5056872;28;20067;-90
2023/09/06 10:15:37;;;;;;;15.30;7.05;;;;;;;24.71;61.06;99886.44;5053796;28;20082;-90
2023/09/06 10:18:04;;;;;;;9.32;6.97;;;;;;;25.27;62.97;99878.97;5073518;28;20477;-90
2023/09/06 10:20:32;;;;;;;15.50;6.85;;;;;;;25.60;59.53;99890.88;5056757;28;20028;-89
2023/09/06 10:22:59;;;;;;;10.30;5.88;;;;;;;25.88;56.81;99889.69;5068513;28;20024;-89
2023/09/06 10:25:25;;;;;;;18.33;7.03;;;;;;;25.95;56.73;99887.97;5073020;28;20036;-89
2023/09/06 10:27:56;;;;;;;10.88;6.47;;;;;;;26.12;56.53;99881.16;5072984;28;20021;-89
2023/09/06 10:30:44;;;;;;;12.32;7.07;;;;;;;26.20;55.38;99879.84;5057689;28;20027;-89
2023/09/06 10:33:31;;;;;;;15.55;7.25;;;;;;;26.48;55.07;99869.13;5050425;28;20028;-89
2023/09/06 10:36:05;;;;;;;10.32;7.65;;;;;;;26.60;54.33;99878.38;5042900;28;20037;-90
2023/09/06 10:38:33;;;;;;;11.88;6.10;;;;;;;26.53;55.04;99879.31;5036307;28;20123;-90
2023/09/06 10:41:02;;;;;;;12.30;6.85;;;;;;;26.54;55.64;99885.84;5036826;28;20025;-90
2023/09/06 10:43:29;;;;;;;11.95;7.28;;;;;;;25.68;56.75;99874.41;5070698;28;20083;-90
2023/09/06 10:46:10;;;;;;;11.75;6.90;;;;;;;25.65;56.70;99882.63;5058825;28;20051;-89
2023/09/06 10:48:35;;;;;;;11.85;7.55;;;;;;;25.58;55.85;99877.00;5055895;28;20170;-89
2023/09/06 10:51:09;;;;;;;11.23;7.47;;;;;;;24.81;57.87;99870.47;5056442;28;20357;-89
2023/09/06 10:53:38;;;;;;;10.45;6.95;;;;;;;25.22;58.13;99865.97;5054357;28;20020;-89
2023/09/06 10:56:05;;;;;;;11.73;7.67;;;;;;;25.30;56.50;99878.94;5089795;28;20024;-90
2023/09/06 10:58:33;;;;;;;9.60;7.72;;;;;;;25.34;56.69;99873.16;5072657;28;20037;-90
2023/09/06 11:01:18;;;;;;;10.55;7.30;;;;;;;25.51;56.31;99865.63;5072643;28;20039;-90
2023/09/06 11:03:54;;;;;;;10.90;7.35;;;;;;;25.59;56.44;99855.72;5072741;28;20043;-90
2023/09/06 11:06:19;;;;;;;11.27;7.13;;;;;;;25.73;56.01;99865.34;5072629;28;20032;-90
2023/09/06 11:08:47;;;;;;;19.80;9.07;;;;;;;25.98;56.94;99861.31;5073605;28;20074;-91
2023/09/06 11:11:14;;;;;;;8.35;7.15;;;;;;;26.26;56.08;99847.78;5069957;28;20037;-92
2023/09/06 11:13:42;;;;;;;12.38;7.40;;;;;;;26.41;54.58;99854.91;5055885;28;20049;-92
2023/09/06 11:16:15;;;;;;;11.77;7.15;;;;;;;26.44;53.90;99850.38;5055769;28;20063;-91